Time;durP1;ratioP1;P1;durP2;ratioP2;P2;SDS_P1;SDS_P2;PMS_P1;PMS_P2;Temp;Humidity;BMP_temperature;BMP_pressure;BME280_temperature;BME280_humidity;BME280_pressure;Samples;Min_cycle;Max_cycle;Signal;HPM_P1;HPM_P2
2022/02/07 00:05:57;;;;;;;;;;;8.50;99.90;;;;;;5124194;27;19916;-75
2022/02/07 00:08:22;;;;;;;;;;;8.40;99.90;;;;;;5125636;27;19947;-72
2022/02/07 00:10:48;;;;;;;;;;;8.40;99.90;;;;;;5128871;27;19927;-72
2022/02/07 00:13:14;;;;;;;;;;;8.40;99.90;;;;;;5127825;27;19916;-73
2022/02/07 00:15:39;;;;;;;;;;;8.40;99.90;;;;;;5124220;27;19911;-75
2022/02/07 00:18:06;;;;;;;;;;;8.40;99.90;;;;;;5121555;27;19912;-74
2022/02/07 00:20:32;;;;;;;;;;;8.30;99.90;;;;;;5122378;27;19950;-74
2022/02/07 00:22:58;;;;;;;;;;;8.30;99.90;;;;;;5119702;27;19923;-73
2022/02/07 00:25:24;;;;;;;;;;;8.30;99.90;;;;;;5122068;27;19912;-75
2022/02/07 00:27:50;;;;;;;;;;;8.30;99.90;;;;;;5129108;27;19918;-74
2022/02/07 00:30:16;;;;;;;;;;;8.30;99.90;;;;;;5118942;27;19912;-74
2022/02/07 00:32:41;;;;;;;;;;;8.40;99.90;;;;;;5122831;27;19919;-73
2022/02/07 00:35:10;;;;;;;;;;;8.40;99.90;;;;;;5129658;27;19911;-74
2022/02/07 00:37:37;;;;;;;;;;;8.40;99.90;;;;;;5124013;27;20002;-74
2022/02/07 00:40:27;;;;;;;;;;;8.40;99.90;;;;;;5131285;27;20270;-74
2022/02/07 00:43:40;;;;;;;;;;;8.50;99.90;;;;;;5128443;27;19911;-73
2022/02/07 00:48:03;;;;;;;;;;;8.40;99.90;;;;;;5129885;27;20014;-72
2022/02/07 00:50:29;;;;;;;;;;;8.50;99.90;;;;;;5124070;27;19920;-73
2022/02/07 00:52:55;;;;;;;;;;;8.40;99.90;;;;;;5117728;27;19954;-73
2022/02/07 00:55:21;;;;;;;;;;;8.30;99.90;;;;;;5116994;27;19919;-74
2022/02/07 00:57:46;;;;;;;;;;;8.40;99.90;;;;;;5130689;27;20520;-73
2022/02/07 01:00:12;;;;;;;;;;;8.50;99.90;;;;;;5127644;27;19919;-74
2022/02/07 01:02:38;;;;;;;;;;;8.50;99.90;;;;;;5127583;27;19911;-72
2022/02/07 01:05:04;;;;;;;;;;;8.40;99.90;;;;;;5121726;27;19912;-75
2022/02/07 01:07:30;;;;;;;;;;;8.40;99.90;;;;;;5120218;27;19962;-74
2022/02/07 01:09:57;;;;;;;;;;;8.40;99.90;;;;;;5132575;27;19947;-74
2022/02/07 01:13:04;;;;;;;;;;;8.40;99.90;;;;;;5123757;27;19916;-72
2022/02/07 01:55:30;;;;;;;;;;;8.30;99.90;;;;;;5123645;27;19950;-73
2022/02/07 01:57:57;;;;;;;;;;;8.40;99.90;;;;;;5128877;27;19971;-73
2022/02/07 02:00:22;;;;;;;;;;;8.40;99.90;;;;;;5124867;27;19920;-72
2022/02/07 02:02:48;;;;;;;;;;;8.30;99.90;;;;;;5124809;27;20083;-73
2022/02/07 02:05:14;;;;;;;;;;;8.30;99.90;;;;;;5127582;27;19912;-73
2022/02/07 02:07:41;;;;;;;;;;;8.30;99.90;;;;;;5119373;27;19916;-73
2022/02/07 02:10:07;;;;;;;;;;;8.30;99.90;;;;;;5126153;27;19965;-74
2022/02/07 02:12:37;;;;;;;;;;;8.30;99.90;;;;;;5121187;27;19918;-72
2022/02/07 02:15:21;;;;;;;;;;;8.40;99.90;;;;;;5127395;27;20330;-74
2022/02/07 02:47:46;;;;;;;;;;;8.50;99.90;;;;;;5124526;28;19922;-74
2022/02/07 02:52:53;;;;;;;;;;;8.50;99.90;;;;;;5122483;28;20570;-74
2022/02/07 02:55:18;;;;;;;;;;;8.40;99.90;;;;;;5121426;28;19957;-72
2022/02/07 02:57:44;;;;;;;;;;;8.50;99.90;;;;;;5123782;28;20457;-72
2022/02/07 03:00:10;;;;;;;;;;;8.40;99.90;;;;;;5124564;27;19924;-72
2022/02/07 03:02:35;;;;;;;;;;;8.50;99.90;;;;;;5115402;27;19955;-74
2022/02/07 03:05:01;;;;;;;;;;;8.40;99.90;;;;;;5128515;27;19945;-73
2022/02/07 03:07:27;;;;;;;;;;;8.40;99.90;;;;;;5118248;27;19922;-73
2022/02/07 03:09:55;;;;;;;;;;;8.40;99.90;;;;;;5131413;27;19945;-74
2022/02/07 03:12:20;;;;;;;;;;;8.40;99.90;;;;;;5122296;27;19919;-72
2022/02/07 03:14:47;;;;;;;;;;;8.40;99.90;;;;;;5132314;27;20425;-73
2022/02/07 03:17:13;;;;;;;;;;;8.40;99.90;;;;;;5129161;27;19912;-73
2022/02/07 03:19:40;;;;;;;;;;;8.40;99.90;;;;;;5131372;27;20285;-72
2022/02/07 03:22:05;;;;;;;;;;;8.40;99.90;;;;;;5129955;27;20385;-73
2022/02/07 03:24:31;;;;;;;;;;;8.40;99.90;;;;;;5127992;27;19916;-73
2022/02/07 03:26:57;;;;;;;;;;;8.40;99.90;;;;;;5126637;27;20010;-74
2022/02/07 03:29:23;;;;;;;;;;;8.40;99.90;;;;;;5130843;27;19945;-72
2022/02/07 03:31:49;;;;;;;;;;;8.40;99.90;;;;;;5125397;27;19920;-72
2022/02/07 03:34:14;;;;;;;;;;;8.40;99.90;;;;;;5128843;27;19919;-73
2022/02/07 03:36:41;;;;;;;;;;;8.40;99.90;;;;;;5123786;27;19915;-73
2022/02/07 03:39:06;;;;;;;;;;;8.50;99.90;;;;;;5131618;27;19911;-73
2022/02/07 03:41:32;;;;;;;;;;;8.50;99.90;;;;;;5129506;27;20014;-74
2022/02/07 03:43:57;;;;;;;;;;;8.50;99.90;;;;;;5131199;27;19916;-74
2022/02/07 03:46:23;;;;;;;;;;;8.60;99.90;;;;;;5125813;27;19912;-74
2022/02/07 03:48:48;;;;;;;;;;;8.60;99.90;;;;;;5133116;27;20417;-74
2022/02/07 03:51:14;;;;;;;;;;;8.60;99.90;;;;;;5119975;27;19911;-74
2022/02/07 03:53:40;;;;;;;;;;;8.60;99.90;;;;;;5128023;27;19919;-74
2022/02/07 03:56:06;;;;;;;;;;;8.70;99.90;;;;;;5130167;27;19916;-73
2022/02/07 03:58:32;;;;;;;;;;;8.70;99.90;;;;;;5130260;27;20026;-74
2022/02/07 04:00:58;;;;;;;;;;;8.80;99.90;;;;;;5123180;27;20369;-74
2022/02/07 04:03:27;;;;;;;;;;;8.60;99.90;;;;;;5125100;27;19915;-74
2022/02/07 04:06:11;;;;;;;;;;;8.70;99.90;;;;;;5129048;27;19919;-73
2022/02/07 04:08:40;;;;;;;;;;;8.70;99.90;;;;;;5129579;27;20661;-73
2022/02/07 04:13:34;;;;;;;;;;;8.70;99.90;;;;;;5127793;27;20042;-74
2022/02/07 04:16:01;;;;;;;;;;;8.70;99.90;;;;;;5125474;27;19931;-73
2022/02/07 04:18:30;;;;;;;;;;;8.60;99.90;;;;;;5130146;27;19911;-74
2022/02/07 04:20:55;;;;;;;;;;;8.60;99.90;;;;;;5126381;27;19943;-75
2022/02/07 04:23:21;;;;;;;;;;;8.60;99.90;;;;;;5129158;27;19962;-72
2022/02/07 04:25:47;;;;;;;;;;;8.50;99.90;;;;;;5128835;27;20361;-72
2022/02/07 04:28:13;;;;;;;;;;;8.50;99.90;;;;;;5130259;27;19915;-72
2022/02/07 04:30:39;;;;;;;;;;;8.50;99.90;;;;;;5127664;27;19915;-73
2022/02/07 04:33:04;;;;;;;;;;;8.50;99.90;;;;;;5126914;27;19912;-73
2022/02/07 04:35:30;;;;;;;;;;;8.50;99.90;;;;;;5124794;27;19923;-73
2022/02/07 04:37:56;;;;;;;;;;;8.50;99.90;;;;;;5126076;27;20006;-73
2022/02/07 04:40:22;;;;;;;;;;;8.50;99.90;;;;;;5123217;27;19956;-72
2022/02/07 04:42:48;;;;;;;;;;;8.50;99.90;;;;;;5127781;27;20219;-73
2022/02/07 04:55:48;;;;;;;;;;;8.40;99.90;;;;;;5128106;27;20011;-72
2022/02/07 05:01:07;;;;;;;;;;;8.50;99.90;;;;;;5125970;27;19918;-72
2022/02/07 05:03:38;;;;;;;;;;;8.40;99.90;;;;;;5125457;27;19911;-72
2022/02/07 05:14:37;;;;;;;;;;;8.40;99.90;;;;;;5111564;27;19919;-73
2022/02/07 05:17:07;;;;;;;;;;;8.30;99.90;;;;;;5121170;27;19934;-73
2022/02/07 05:19:32;;;;;;;;;;;8.20;99.90;;;;;;5123927;27;19956;-73
2022/02/07 05:21:58;;;;;;;;;;;8.10;99.90;;;;;;5118621;27;19924;-73
2022/02/07 05:24:26;;;;;;;;;;;8.00;99.90;;;;;;5126317;27;19951;-73
2022/02/07 05:26:52;;;;;;;;;;;8.00;99.90;;;;;;5124146;27;19923;-74
2022/02/07 05:29:18;;;;;;;;;;;7.90;99.90;;;;;;5126381;27;19911;-73
2022/02/07 05:31:43;;;;;;;;;;;7.90;99.90;;;;;;5127262;27;20381;-74
2022/02/07 05:34:09;;;;;;;;;;;7.90;99.90;;;;;;5119612;27;20006;-73
2022/02/07 05:36:43;;;;;;;;;;;7.90;99.90;;;;;;5119469;27;19918;-72
2022/02/07 05:39:08;;;;;;;;;;;7.90;99.90;;;;;;5126097;27;19922;-72
2022/02/07 05:41:34;;;;;;;;;;;7.90;99.90;;;;;;5120568;27;19911;-72
2022/02/07 05:44:00;;;;;;;;;;;7.80;99.90;;;;;;5125958;27;20365;-73
2022/02/07 05:46:26;;;;;;;;;;;8.00;99.90;;;;;;5133023;27;19907;-75
2022/02/07 05:48:51;;;;;;;;;;;8.00;99.90;;;;;;5126710;27;19911;-74
2022/02/07 05:51:17;;;;;;;;;;;8.10;99.90;;;;;;5122158;27;19934;-73
2022/02/07 05:53:43;;;;;;;;;;;8.00;99.90;;;;;;5129388;27;19911;-76
2022/02/07 05:56:09;;;;;;;;;;;8.00;99.90;;;;;;5123389;27;20309;-73
2022/02/07 05:58:35;;;;;;;;;;;8.00;99.90;;;;;;5129969;27;19907;-73
2022/02/07 06:01:00;;;;;;;;;;;8.00;99.90;;;;;;5113713;27;20011;-72
2022/02/07 06:03:26;;;;;;;;;;;8.10;99.90;;;;;;5117289;27;19950;-73
2022/02/07 06:05:51;;;;;;;;;;;8.10;99.90;;;;;;5121046;27;19999;-77
2022/02/07 06:08:17;;;;;;;;;;;8.20;99.90;;;;;;5124010;27;19915;-73
2022/02/07 06:10:44;;;;;;;;;;;8.30;99.90;;;;;;5123424;27;19934;-73
2022/02/07 06:13:13;;;;;;;;;;;8.40;99.90;;;;;;5126265;27;19988;-73
2022/02/07 06:15:39;;;;;;;;;;;8.40;99.90;;;;;;5123921;27;20377;-72
2022/02/07 06:18:05;;;;;;;;;;;8.40;99.90;;;;;;5128804;27;19936;-73
2022/02/07 06:20:30;;;;;;;;;;;8.40;99.90;;;;;;5128414;27;20068;-73
2022/02/07 06:22:56;;;;;;;;;;;8.40;99.90;;;;;;5123095;27;19918;-74
2022/02/07 06:25:22;;;;;;;;;;;8.40;99.90;;;;;;5126122;27;19990;-74
2022/02/07 06:27:47;;;;;;;;;;;8.20;99.90;;;;;;5120938;27;20425;-72
2022/02/07 06:30:13;;;;;;;;;;;8.10;99.90;;;;;;5126305;27;20010;-73
2022/02/07 06:32:39;;;;;;;;;;;8.10;99.90;;;;;;5125367;27;20422;-73
2022/02/07 06:35:05;;;;;;;;;;;7.80;99.90;;;;;;5121435;27;19954;-73
2022/02/07 06:37:30;;;;;;;;;;;7.80;99.90;;;;;;5123597;27;19968;-74
2022/02/07 06:39:56;;;;;;;;;;;7.80;99.90;;;;;;5121269;27;19916;-74
2022/02/07 06:42:22;;;;;;;;;;;7.80;99.90;;;;;;5114216;27;19915;-75
2022/02/07 06:44:47;;;;;;;;;;;8.00;99.90;;;;;;5125216;27;19918;-72
2022/02/07 06:47:13;;;;;;;;;;;8.10;99.90;;;;;;5127015;27;19922;-73
2022/02/07 06:49:38;;;;;;;;;;;8.20;99.90;;;;;;5122014;27;20017;-73
2022/02/07 06:52:04;;;;;;;;;;;8.30;99.90;;;;;;5127152;27;20407;-75
2022/02/07 06:54:30;;;;;;;;;;;8.40;99.90;;;;;;5123571;28;19968;-74
2022/02/07 06:56:55;;;;;;;;;;;8.30;99.90;;;;;;5123946;27;19950;-72
2022/02/07 06:59:21;;;;;;;;;;;8.30;99.90;;;;;;5123561;28;19915;-74
2022/02/07 07:01:47;;;;;;;;;;;8.20;99.90;;;;;;5125106;28;19911;-72
2022/02/07 07:04:12;;;;;;;;;;;8.10;99.90;;;;;;5127674;27;19911;-76
2022/02/07 07:06:39;;;;;;;;;;;8.20;99.90;;;;;;5120936;28;19923;-74
2022/02/07 07:09:06;;;;;;;;;;;8.20;99.90;;;;;;5119692;28;19919;-73
2022/02/07 07:11:33;;;;;;;;;;;8.10;99.90;;;;;;5122689;27;20452;-72
2022/02/07 07:14:16;;;;;;;;;;;8.10;99.90;;;;;;5119636;28;20757;-74
2022/02/07 07:16:51;;;;;;;;;;;8.10;99.90;;;;;;5123271;28;19918;-74
2022/02/07 07:19:18;;;;;;;;;;;8.10;99.90;;;;;;5111927;27;19911;-73
2022/02/07 07:21:44;;;;;;;;;;;8.20;99.90;;;;;;5123320;28;20292;-74
2022/02/07 07:24:09;;;;;;;;;;;8.30;99.90;;;;;;5128191;28;19919;-74
2022/02/07 07:26:36;;;;;;;;;;;8.30;99.90;;;;;;5130746;28;19923;-75
2022/02/07 07:29:07;;;;;;;;;;;8.40;99.90;;;;;;5126946;27;19990;-73
2022/02/07 07:31:39;;;;;;;;;;;8.60;99.90;;;;;;5131330;27;19918;-73
2022/02/07 07:34:04;;;;;;;;;;;8.80;99.90;;;;;;5126762;27;19957;-73
2022/02/07 07:36:30;;;;;;;;;;;8.80;99.90;;;;;;5122081;28;19911;-72
2022/02/07 07:38:55;;;;;;;;;;;8.90;99.90;;;;;;5131037;28;19911;-73
2022/02/07 07:41:21;;;;;;;;;;;8.90;99.90;;;;;;5122809;28;19953;-73
2022/02/07 07:43:49;;;;;;;;;;;8.90;99.90;;;;;;5128454;28;19961;-72
2022/02/07 07:46:17;;;;;;;;;;;8.90;99.90;;;;;;5127164;28;19924;-72
2022/02/07 07:48:49;;;;;;;;;;;8.90;99.90;;;;;;5123530;28;19947;-73
2022/02/07 08:02:17;;;;;;;;;;;9.30;99.90;;;;;;5129761;27;19918;-73
2022/02/07 08:04:45;;;;;;;;;;;9.30;99.90;;;;;;5127871;27;19907;-74
2022/02/07 08:12:26;;;;;;;;;;;9.40;99.90;;;;;;5125007;27;19915;-74
2022/02/07 08:14:51;;;;;;;;;;;9.30;99.90;;;;;;5125656;27;19915;-75
2022/02/07 08:17:21;;;;;;;;;;;9.30;99.90;;;;;;5132050;27;20357;-73
2022/02/07 08:19:47;;;;;;;;;;;9.20;99.90;;;;;;5129439;27;19969;-76
2022/02/07 08:22:12;;;;;;;;;;;9.20;99.90;;;;;;5121937;27;19965;-74
2022/02/07 08:24:38;;;;;;;;;;;9.30;99.90;;;;;;5131254;27;20446;-72
2022/02/07 08:27:05;;;;;;;;;;;9.30;99.90;;;;;;5122671;27;19915;-74
2022/02/07 08:29:31;;;;;;;;;;;9.30;99.90;;;;;;5128578;27;20348;-73
2022/02/07 08:31:56;;;;;;;;;;;9.30;99.90;;;;;;5121894;27;20010;-75
2022/02/07 08:34:22;;;;;;;;;;;9.30;99.90;;;;;;5130810;27;20460;-73
2022/02/07 08:36:47;;;;;;;;;;;9.30;99.90;;;;;;5127854;27;20010;-74
2022/02/07 08:39:13;;;;;;;;;;;9.30;99.90;;;;;;5132118;27;19918;-73
2022/02/07 08:41:39;;;;;;;;;;;9.50;99.90;;;;;;5130004;27;19912;-73
2022/02/07 08:44:04;;;;;;;;;;;9.60;99.90;;;;;;5131459;27;19937;-74
2022/02/07 08:46:30;;;;;;;;;;;9.50;99.90;;;;;;5125498;27;19951;-74
2022/02/07 08:48:57;;;;;;;;;;;9.40;99.90;;;;;;5130957;27;19911;-75
2022/02/07 08:51:23;;;;;;;;;;;9.50;99.90;;;;;;5132080;27;19952;-74
2022/02/07 08:53:49;;;;;;;;;;;9.40;99.90;;;;;;5129820;27;20229;-74
2022/02/07 08:56:17;;;;;;;;;;;9.30;99.90;;;;;;5114161;27;20303;-72
2022/02/07 08:58:45;;;;;;;;;;;9.30;99.90;;;;;;5127369;27;19911;-74
2022/02/07 09:08:53;;;;;;;;;;;9.30;99.90;;;;;;5126322;27;19915;-73
2022/02/07 09:11:18;;;;;;;;;;;9.40;99.90;;;;;;5122790;27;19927;-77
2022/02/07 09:13:45;;;;;;;;;;;9.30;99.90;;;;;;5125290;27;20309;-73
2022/02/07 09:18:39;;;;;;;;;;;9.30;99.90;;;;;;5132049;27;19908;-66
2022/02/07 09:21:06;;;;;;;;;;;9.20;99.90;;;;;;5129340;27;20346;-65
2022/02/07 09:23:32;;;;;;;;;;;9.30;99.90;;;;;;5132661;27;19911;-66
2022/02/07 09:25:58;;;;;;;;;;;9.40;99.90;;;;;;5119619;27;19914;-65
2022/02/07 09:28:24;;;;;;;;;;;9.60;99.90;;;;;;5118457;27;19915;-65
2022/02/07 09:30:50;;;;;;;;;;;9.60;99.90;;;;;;5119017;27;19914;-66
2022/02/07 09:33:16;;;;;;;;;;;9.60;99.90;;;;;;5122666;27;20305;-67
2022/02/07 09:35:42;;;;;;;;;;;9.60;99.90;;;;;;5119584;27;19922;-66
2022/02/07 09:38:08;;;;;;;;;;;9.60;99.90;;;;;;5125736;27;19912;-65
2022/02/07 09:40:34;;;;;;;;;;;9.60;99.90;;;;;;5128842;27;19914;-67
2022/02/07 09:43:00;;;;;;;;;;;9.70;99.90;;;;;;5119763;27;19934;-67
2022/02/07 09:45:35;;;;;;;;;;;9.60;99.90;;;;;;5111271;27;19918;-67
2022/02/07 09:48:06;;;;;;;;;;;9.60;99.90;;;;;;5131149;27;19919;-68
2022/02/07 09:50:32;;;;;;;;;;;9.50;99.90;;;;;;5129024;27;19911;-68
2022/02/07 09:52:58;;;;;;;;;;;9.50;99.90;;;;;;5116951;27;20391;-68
2022/02/07 09:55:25;;;;;;;;;;;9.40;99.90;;;;;;5128228;27;20365;-67
2022/02/07 09:57:53;;;;;;;;;;;9.50;99.90;;;;;;5131659;27;19998;-67
2022/02/07 10:00:20;;;;;;;;;;;9.50;99.90;;;;;;5126226;27;19914;-67
2022/02/07 10:03:03;;;;;;;;;;;9.60;99.90;;;;;;5124036;27;19911;-67
2022/02/07 10:05:32;;;;;;;;;;;9.60;99.90;;;;;;5123067;27;19954;-67
2022/02/07 10:15:39;;;;;;;;;;;9.60;99.90;;;;;;5132108;27;19915;-68
2022/02/07 10:18:15;;;;;;;;;;;9.60;99.90;;;;;;5119412;27;19911;-67
2022/02/07 10:35:09;;;;;;;;;;;9.70;99.90;;;;;;5126323;27;19946;-69
2022/02/07 10:45:52;;;;;;;;;;;10.40;99.90;;;;;;5125167;27;19912;-67
2022/02/07 10:48:48;;;;;;;;;;;10.60;99.90;;;;;;5130568;27;19912;-68
2022/02/07 10:51:18;;;;;;;;;;;10.80;99.90;;;;;;5109557;28;19911;-67
2022/02/07 10:53:46;;;;;;;;;;;11.00;99.90;;;;;;5130197;28;20345;-68
2022/02/07 10:56:12;;;;;;;;;;;10.80;99.90;;;;;;5127005;28;19965;-68
2022/02/07 10:58:38;;;;;;;;;;;10.80;99.90;;;;;;5127261;28;19916;-67
2022/02/07 11:01:13;;;;;;;;;;;10.80;99.90;;;;;;5121183;28;19918;-68
2022/02/07 11:03:43;;;;;;;;;;;10.90;99.90;;;;;;5121656;28;19911;-67
2022/02/07 11:06:11;;;;;;;;;;;11.10;99.90;;;;;;5127808;28;19950;-69
2022/02/07 11:09:04;;;;;;;;;;;11.50;99.90;;;;;;5126402;28;19915;-67
2022/02/07 11:25:40;;;;;;;;;;;12.30;98.20;;;;;;5122103;28;19922;-70
2022/02/07 11:28:22;;;;;;;;;;;12.30;97.80;;;;;;5121549;27;19983;-69
2022/02/07 11:30:52;;;;;;;;;;;12.20;96.80;;;;;;5128450;27;19912;-70
2022/02/07 11:33:36;;;;;;;;;;;12.10;97.60;;;;;;5131488;27;19911;-70
2022/02/07 11:36:03;;;;;;;;;;;12.20;97.40;;;;;;5127664;27;19915;-69
2022/02/07 11:38:29;;;;;;;;;;;12.20;96.40;;;;;;5132979;27;19907;-69
2022/02/07 11:40:55;;;;;;;;;;;12.10;98.20;;;;;;5128654;27;19911;-71
2022/02/07 11:43:25;;;;;;;;;;;12.00;98.40;;;;;;5127113;27;20404;-69
2022/02/07 11:45:50;;;;;;;;;;;12.00;98.90;;;;;;5130786;27;19913;-69
2022/02/07 11:48:20;;;;;;;;;;;12.00;97.20;;;;;;5132554;27;20509;-66
2022/02/07 11:50:46;;;;;;;;;;;12.00;96.70;;;;;;5129129;27;20794;-69
2022/02/07 11:53:12;;;;;;;;;;;12.00;96.40;;;;;;5134708;27;20024;-68
2022/02/07 11:55:47;;;;;;;;;;;12.10;91.60;;;;;;5121106;27;19998;-68
2022/02/07 11:58:22;;;;;;;;;;;12.20;91.50;;;;;;5133114;27;19915;-68
2022/02/07 12:00:55;;;;;;;;;;;12.40;88.00;;;;;;5128099;27;19911;-68
2022/02/07 12:03:22;;;;;;;;;;;12.40;85.60;;;;;;5132222;27;19919;-68
2022/02/07 12:05:52;;;;;;;;;;;12.40;85.40;;;;;;5130633;27;20241;-67
2022/02/07 12:08:25;;;;;;;;;;;12.40;84.50;;;;;;5132994;27;20303;-69
2022/02/07 12:11:03;;;;;;;;;;;12.50;83.60;;;;;;5129159;27;20396;-67
2022/02/07 12:13:33;;;;;;;;;;;12.40;83.50;;;;;;5123411;27;20273;-67
2022/02/07 12:16:17;;;;;;;;;;;12.40;87.80;;;;;;5127133;27;19912;-70
2022/02/07 12:18:45;;;;;;;;;;;12.40;88.20;;;;;;5128245;27;20315;-70
2022/02/07 12:21:14;;;;;;;;;;;12.40;82.20;;;;;;5130093;27;19926;-67
2022/02/07 12:23:40;;;;;;;;;;;12.40;80.10;;;;;;5127844;27;19964;-70
2022/02/07 12:26:13;;;;;;;;;;;12.40;83.20;;;;;;5131314;27;20040;-67
2022/02/07 12:31:11;;;;;;;;;;;12.40;77.50;;;;;;5127451;27;19911;-68
2022/02/07 12:33:38;;;;;;;;;;;12.40;78.40;;;;;;5132158;27;20396;-67
2022/02/07 12:36:04;;;;;;;;;;;12.40;78.40;;;;;;5128749;27;20292;-67
2022/02/07 12:38:37;;;;;;;;;;;12.30;78.20;;;;;;5134344;27;19907;-73
2022/02/07 12:41:04;;;;;;;;;;;12.40;79.90;;;;;;5127659;27;19911;-68
2022/02/07 12:43:34;;;;;;;;;;;12.40;76.70;;;;;;5132861;27;20002;-70
2022/02/07 12:46:01;;;;;;;;;;;12.40;75.90;;;;;;5124237;27;19911;-68
2022/02/07 12:48:35;;;;;;;;;;;12.40;75.00;;;;;;5128674;27;19942;-68
2022/02/07 12:51:00;;;;;;;;;;;12.40;74.70;;;;;;5128189;27;19979;-69
2022/02/07 12:53:27;;;;;;;;;;;12.30;74.30;;;;;;5130820;27;19911;-68
2022/02/07 12:55:58;;;;;;;;;;;12.30;74.20;;;;;;5124750;27;19920;-69
2022/02/07 12:58:24;;;;;;;;;;;12.30;73.00;;;;;;5115866;27;19912;-68
2022/02/07 13:00:50;;;;;;;;;;;12.30;69.90;;;;;;5127463;27;19912;-69
2022/02/07 13:03:16;;;;;;;;;;;12.30;73.00;;;;;;5131852;27;19927;-69
2022/02/07 13:05:43;;;;;;;;;;;12.30;74.10;;;;;;5130929;27;20341;-69
2022/02/07 13:08:11;;;;;;;;;;;12.30;73.70;;;;;;5132421;27;19922;-69
2022/02/07 13:10:38;;;;;;;;;;;12.40;71.60;;;;;;5123749;27;19956;-70
2022/02/07 13:13:21;;;;;;;;;;;12.30;74.50;;;;;;5125889;27;20391;-68
2022/02/07 13:15:47;;;;;;;;;;;12.30;71.40;;;;;;5124710;27;19919;-68
2022/02/07 13:18:16;;;;;;;;;;;12.40;69.70;;;;;;5123225;27;20002;-68
2022/02/07 13:20:42;;;;;;;;;;;12.40;69.00;;;;;;5129547;27;19912;-69
2022/02/07 13:23:15;;;;;;;;;;;12.40;70.00;;;;;;5126208;27;19918;-68
2022/02/07 13:25:45;;;;;;;;;;;12.40;73.40;;;;;;5125170;27;19938;-69
2022/02/07 13:28:12;;;;;;;;;;;12.40;76.80;;;;;;5122912;27;20376;-71
2022/02/07 13:30:42;;;;;;;;;;;12.30;78.10;;;;;;5128466;27;19957;-68
2022/02/07 13:33:08;;;;;;;;;;;12.40;73.50;;;;;;5123674;27;19911;-69
2022/02/07 13:35:42;;;;;;;;;;;12.40;71.30;;;;;;5122389;27;19923;-68
2022/02/07 13:38:09;;;;;;;;;;;12.40;73.00;;;;;;5123254;27;19912;-68
2022/02/07 13:40:39;;;;;;;;;;;12.40;71.30;;;;;;5117683;27;20315;-68
2022/02/07 13:43:04;;;;;;;;;;;12.40;73.40;;;;;;5131385;27;19964;-69
2022/02/07 13:45:31;;;;;;;;;;;12.40;75.70;;;;;;5127445;27;19920;-69
2022/02/07 13:47:58;;;;;;;;;;;12.30;73.90;;;;;;5123425;27;19916;-68
2022/02/07 13:50:31;;;;;;;;;;;12.30;74.60;;;;;;5121949;27;20280;-69
2022/02/07 13:52:57;;;;;;;;;;;12.20;77.00;;;;;;5119977;27;19912;-69
2022/02/07 13:55:28;;;;;;;;;;;12.20;78.70;;;;;;5128657;27;19932;-68
2022/02/07 13:58:02;;;;;;;;;;;12.10;80.30;;;;;;5127027;27;20006;-69
2022/02/07 14:00:46;;;;;;;;;;;12.10;78.60;;;;;;5129706;27;20318;-68
2022/02/07 14:03:18;;;;;;;;;;;12.10;78.40;;;;;;5126397;27;19917;-68
2022/02/07 14:05:52;;;;;;;;;;;12.00;82.50;;;;;;5131294;27;19918;-69
2022/02/07 14:08:29;;;;;;;;;;;12.00;81.70;;;;;;5128162;27;19916;-68
2022/02/07 14:10:54;;;;;;;;;;;12.00;79.30;;;;;;5127591;27;19915;-68
2022/02/07 14:13:20;;;;;;;;;;;11.90;77.30;;;;;;5128084;27;20045;-69
2022/02/07 14:15:46;;;;;;;;;;;11.90;80.60;;;;;;5128453;27;19973;-68
2022/02/07 14:18:15;;;;;;;;;;;11.90;80.40;;;;;;5131057;27;19907;-69
2022/02/07 14:20:41;;;;;;;;;;;11.80;83.60;;;;;;5127242;27;19933;-69
2022/02/07 14:23:07;;;;;;;;;;;11.80;85.10;;;;;;5129342;27;19911;-71
2022/02/07 14:25:33;;;;;;;;;;;11.80;88.30;;;;;;5122282;27;20089;-69
2022/02/07 14:28:00;;;;;;;;;;;11.70;90.10;;;;;;5128107;27;19915;-68
2022/02/07 14:30:29;;;;;;;;;;;11.60;91.40;;;;;;5128190;27;19987;-69
2022/02/07 14:32:55;;;;;;;;;;;11.60;92.00;;;;;;5127214;27;20322;-69
2022/02/07 14:35:21;;;;;;;;;;;11.50;90.00;;;;;;5125548;27;19919;-68
2022/02/07 14:37:46;;;;;;;;;;;11.50;90.20;;;;;;5130410;27;19918;-68
2022/02/07 14:40:12;;;;;;;;;;;11.50;90.00;;;;;;5126762;27;19912;-70
2022/02/07 14:42:38;;;;;;;;;;;11.50;89.70;;;;;;5121126;27;19911;-69
2022/02/07 14:45:13;;;;;;;;;;;11.40;90.10;;;;;;5118103;27;19911;-69
2022/02/07 14:50:13;;;;;;;;;;;11.40;89.30;;;;;;5128543;28;19915;-69
2022/02/07 14:52:39;;;;;;;;;;;11.40;88.20;;;;;;5130313;28;19947;-69
2022/02/07 14:55:05;;;;;;;;;;;11.40;88.90;;;;;;5122926;28;19922;-68
2022/02/07 14:57:30;;;;;;;;;;;11.30;90.40;;;;;;5116970;28;20387;-70
2022/02/07 14:59:56;;;;;;;;;;;11.30;90.70;;;;;;5129690;28;20002;-69
2022/02/07 15:02:22;;;;;;;;;;;11.30;91.00;;;;;;5125772;28;20000;-69
2022/02/07 15:04:49;;;;;;;;;;;11.30;90.80;;;;;;5123217;27;19912;-69
2022/02/07 15:07:15;;;;;;;;;;;11.30;90.30;;;;;;5131103;27;20011;-69
2022/02/07 15:09:41;;;;;;;;;;;11.30;90.20;;;;;;5135384;27;19954;-73
2022/02/07 15:12:06;;;;;;;;;;;11.20;90.70;;;;;;5118879;27;19951;-73
2022/02/07 15:14:32;;;;;;;;;;;11.20;90.20;;;;;;5127405;27;19935;-74
2022/02/07 15:17:02;;;;;;;;;;;11.20;88.30;;;;;;5124891;27;19934;-74
2022/02/07 15:19:27;;;;;;;;;;;11.10;89.30;;;;;;5128975;27;19915;-74
2022/02/07 15:21:53;;;;;;;;;;;11.20;88.70;;;;;;5130382;27;19918;-74
2022/02/07 15:24:19;;;;;;;;;;;11.20;88.50;;;;;;5136367;27;19915;-74
2022/02/07 15:26:46;;;;;;;;;;;11.20;88.40;;;;;;5135843;27;19911;-73
2022/02/07 15:29:13;;;;;;;;;;;11.10;90.40;;;;;;5136913;27;20365;-75
2022/02/07 15:31:44;;;;;;;;;;;11.10;90.70;;;;;;5133110;27;19911;-75
2022/02/07 15:34:10;;;;;;;;;;;11.00;90.20;;;;;;5133750;27;19908;-75
2022/02/07 15:36:35;;;;;;;;;;;11.00;90.90;;;;;;5125178;27;19919;-74
2022/02/07 15:39:02;;;;;;;;;;;11.00;90.40;;;;;;5125648;27;20388;-75
2022/02/07 15:41:27;;;;;;;;;;;11.00;90.40;;;;;;5138696;27;19911;-73
2022/02/07 15:43:53;;;;;;;;;;;11.00;90.60;;;;;;5136065;27;20438;-75
2022/02/07 15:46:19;;;;;;;;;;;11.00;90.90;;;;;;5131923;27;19916;-73
2022/02/07 15:48:44;;;;;;;;;;;11.00;91.20;;;;;;5134170;27;20392;-76
2022/02/07 15:51:10;;;;;;;;;;;11.00;91.90;;;;;;5130341;27;19922;-75
2022/02/07 15:53:36;;;;;;;;;;;10.90;91.80;;;;;;5132292;27;19911;-74
2022/02/07 15:56:02;;;;;;;;;;;10.90;92.20;;;;;;5131979;27;19912;-75
2022/02/07 15:58:28;;;;;;;;;;;10.80;92.30;;;;;;5139758;27;20254;-75
2022/02/07 16:00:53;;;;;;;;;;;10.80;93.00;;;;;;5130430;27;19930;-75
2022/02/07 16:03:19;;;;;;;;;;;10.70;92.80;;;;;;5135558;27;19911;-75
2022/02/07 16:05:44;;;;;;;;;;;10.70;93.40;;;;;;5135309;27;19911;-74
2022/02/07 16:08:11;;;;;;;;;;;10.60;92.60;;;;;;5130561;27;19920;-75
2022/02/07 16:10:38;;;;;;;;;;;10.60;92.60;;;;;;5135251;27;19919;-73
2022/02/07 16:13:17;;;;;;;;;;;10.50;92.00;;;;;;5126344;27;19934;-73
2022/02/07 16:15:44;;;;;;;;;;;10.50;92.40;;;;;;5123273;27;19912;-75
2022/02/07 16:18:11;;;;;;;;;;;10.40;92.60;;;;;;5126618;27;19912;-75
2022/02/07 16:20:39;;;;;;;;;;;10.40;92.70;;;;;;5132389;27;19915;-76
2022/02/07 16:23:08;;;;;;;;;;;10.30;92.40;;;;;;5127700;27;20369;-75
2022/02/07 16:25:39;;;;;;;;;;;10.30;92.20;;;;;;5128534;27;20377;-75
2022/02/07 16:28:05;;;;;;;;;;;10.30;91.90;;;;;;5130714;27;19916;-73
2022/02/07 16:30:31;;;;;;;;;;;10.20;91.90;;;;;;5137065;27;20105;-75
2022/02/07 16:32:56;;;;;;;;;;;10.20;91.10;;;;;;5132680;27;19957;-75
2022/02/07 16:35:22;;;;;;;;;;;10.10;91.00;;;;;;5128375;27;19968;-76
2022/02/07 16:37:47;;;;;;;;;;;10.10;90.10;;;;;;5130305;27;19912;-75
2022/02/07 16:40:13;;;;;;;;;;;10.10;89.70;;;;;;5120440;27;19911;-77
2022/02/07 16:42:39;;;;;;;;;;;10.00;88.70;;;;;;5124090;27;20002;-74
2022/02/07 16:45:14;;;;;;;;;;;10.00;87.70;;;;;;5130310;27;19919;-76
2022/02/07 16:47:39;;;;;;;;;;;9.90;87.40;;;;;;5128005;27;20387;-75
2022/02/07 16:50:05;;;;;;;;;;;9.80;89.00;;;;;;5121442;27;19916;-72
2022/02/07 16:52:31;;;;;;;;;;;9.80;88.90;;;;;;5128349;27;19915;-73
2022/02/07 16:54:56;;;;;;;;;;;9.70;90.00;;;;;;5125066;27;19919;-75
2022/02/07 16:57:22;;;;;;;;;;;9.70;90.10;;;;;;5122103;27;19921;-74
2022/02/07 16:59:47;;;;;;;;;;;9.60;90.40;;;;;;5126916;27;19920;-74
2022/02/07 17:02:13;;;;;;;;;;;9.60;90.30;;;;;;5122571;27;19912;-73
2022/02/07 17:04:42;;;;;;;;;;;9.50;89.50;;;;;;5126487;27;19920;-73
2022/02/07 17:07:08;;;;;;;;;;;9.50;90.00;;;;;;5126141;27;19974;-73
2022/02/07 17:09:35;;;;;;;;;;;9.50;89.40;;;;;;5130183;27;19958;-75
2022/02/07 17:12:00;;;;;;;;;;;9.50;90.00;;;;;;5128523;27;19918;-75
2022/02/07 17:14:27;;;;;;;;;;;9.40;90.60;;;;;;5124933;27;20281;-74
2022/02/07 17:16:52;;;;;;;;;;;9.40;90.90;;;;;;5122672;27;19951;-73
2022/02/07 17:19:19;;;;;;;;;;;9.30;90.70;;;;;;5128270;27;20345;-76
2022/02/07 17:21:44;;;;;;;;;;;9.30;91.10;;;;;;5128871;27;19908;-73
2022/02/07 17:24:10;;;;;;;;;;;9.20;90.70;;;;;;5118558;27;19911;-74
2022/02/07 17:26:36;;;;;;;;;;;9.20;90.20;;;;;;5117528;27;20002;-77
2022/02/07 17:29:02;;;;;;;;;;;9.20;90.60;;;;;;5123913;27;20367;-74